sensor_id;sensor_type;location;lat;lon;timestamp;pressure;altitude;pressure_sealevel;temperature;humidity
60974;BME280;46846;51.528;5.076;2022-11-22T00:02:01;98578.91;;;4.74;79.61
60974;BME280;46846;51.528;5.076;2022-11-22T00:04:27;98586.88;;;4.73;79.82
60974;BME280;46846;51.528;5.076;2022-11-22T00:06:52;98579.91;;;4.72;79.54
60974;BME280;46846;51.528;5.076;2022-11-22T00:09:17;98575.69;;;4.68;79.88
60974;BME280;46846;51.528;5.076;2022-11-22T00:11:42;98565.38;;;4.63;79.88
60974;BME280;46846;51.528;5.076;2022-11-22T00:14:08;98557.41;;;4.64;79.92
60974;BME280;46846;51.528;5.076;2022-11-22T00:16:33;98563.53;;;4.65;79.37
60974;BME280;46846;51.528;5.076;2022-11-22T00:18:58;98573.06;;;4.68;80.20
60974;BME280;46846;51.528;5.076;2022-11-22T00:21:24;98568.72;;;4.67;79.77
60974;BME280;46846;51.528;5.076;2022-11-22T00:23:49;98566.06;;;4.67;79.68
60974;BME280;46846;51.528;5.076;2022-11-22T00:26:18;98575.63;;;4.69;79.52
60974;BME280;46846;51.528;5.076;2022-11-22T00:28:43;98572.06;;;4.70;79.80
60974;BME280;46846;51.528;5.076;2022-11-22T00:31:09;98566.78;;;4.70;79.65
60974;BME280;46846;51.528;5.076;2022-11-22T00:33:34;98572.22;;;4.67;79.65
60974;BME280;46846;51.528;5.076;2022-11-22T00:35:59;98576.50;;;4.70;80.21
60974;BME280;46846;51.528;5.076;2022-11-22T00:38:24;98574.84;;;4.67;79.34
60974;BME280;46846;51.528;5.076;2022-11-22T00:40:50;98573.91;;;4.68;79.73
60974;BME280;46846;51.528;5.076;2022-11-22T00:43:15;98583.59;;;4.68;79.34
60974;BME280;46846;51.528;5.076;2022-11-22T00:45:40;98580.91;;;4.69;79.89
60974;BME280;46846;51.528;5.076;2022-11-22T00:48:05;98580.06;;;4.69;79.67
60974;BME280;46846;51.528;5.076;2022-11-22T00:50:31;98584.50;;;4.67;79.58
60974;BME280;46846;51.528;5.076;2022-11-22T00:52:56;98582.81;;;4.65;79.32
60974;BME280;46846;51.528;5.076;2022-11-22T00:55:21;98575.78;;;4.66;79.64
60974;BME280;46846;51.528;5.076;2022-11-22T00:57:46;98580.19;;;4.65;79.72
60974;BME280;46846;51.528;5.076;2022-11-22T01:00:12;98577.59;;;4.64;79.86
60974;BME280;46846;51.528;5.076;2022-11-22T01:02:37;98576.84;;;4.62;79.77
60974;BME280;46846;51.528;5.076;2022-11-22T01:05:02;98577.75;;;4.61;79.60
60974;BME280;46846;51.528;5.076;2022-11-22T01:07:28;98571.56;;;4.62;79.74
60974;BME280;46846;51.528;5.076;2022-11-22T01:09:53;98582.09;;;4.62;79.53
60974;BME280;46846;51.528;5.076;2022-11-22T01:12:18;98574.34;;;4.59;79.87
60974;BME280;46846;51.528;5.076;2022-11-22T01:14:43;98585.66;;;4.61;80.07
60974;BME280;46846;51.528;5.076;2022-11-22T01:17:09;98589.16;;;4.61;79.58
60974;BME280;46846;51.528;5.076;2022-11-22T01:19:34;98589.06;;;4.63;79.82
60974;BME280;46846;51.528;5.076;2022-11-22T01:21:59;98584.84;;;4.60;79.75
60974;BME280;46846;51.528;5.076;2022-11-22T01:24:24;98585.66;;;4.61;79.31
60974;BME280;46846;51.528;5.076;2022-11-22T01:26:50;98583.91;;;4.61;79.78
60974;BME280;46846;51.528;5.076;2022-11-22T01:29:15;98588.38;;;4.59;79.45
60974;BME280;46846;51.528;5.076;2022-11-22T01:31:40;98590.94;;;4.61;79.25
60974;BME280;46846;51.528;5.076;2022-11-22T01:34:05;98588.47;;;4.58;80.01
60974;BME280;46846;51.528;5.076;2022-11-22T01:36:31;98588.47;;;4.58;79.50
60974;BME280;46846;51.528;5.076;2022-11-22T01:38:56;98581.38;;;4.58;80.00
60974;BME280;46846;51.528;5.076;2022-11-22T01:41:21;98591.09;;;4.58;79.64
60974;BME280;46846;51.528;5.076;2022-11-22T01:43:46;98588.56;;;4.55;79.35
60974;BME280;46846;51.528;5.076;2022-11-22T01:46:17;98592.09;;;4.55;79.91
60974;BME280;46846;51.528;5.076;2022-11-22T01:48:50;98598.19;;;4.56;79.20
60974;BME280;46846;51.528;5.076;2022-11-22T01:54:12;98601.75;;;4.55;79.36
60974;BME280;46846;51.528;5.076;2022-11-22T01:56:38;98599.13;;;4.55;80.01
60974;BME280;46846;51.528;5.076;2022-11-22T01:59:07;98608.66;;;4.57;79.35
60974;BME280;46846;51.528;5.076;2022-11-22T02:01:33;98612.28;;;4.55;79.63
60974;BME280;46846;51.528;5.076;2022-11-22T02:03:59;98606.25;;;4.53;80.14
60974;BME280;46846;51.528;5.076;2022-11-22T02:06:35;98609.66;;;4.55;80.01
60974;BME280;46846;51.528;5.076;2022-11-22T02:09:11;98602.69;;;4.54;79.78
60974;BME280;46846;51.528;5.076;2022-11-22T02:11:39;98612.50;;;4.50;80.14
60974;BME280;46846;51.528;5.076;2022-11-22T02:14:05;98616.94;;;4.49;79.81
60974;BME280;46846;51.528;5.076;2022-11-22T02:16:33;98628.28;;;4.50;79.56
60974;BME280;46846;51.528;5.076;2022-11-22T02:18:58;98631.91;;;4.47;79.44
60974;BME280;46846;51.528;5.076;2022-11-22T02:21:23;98630.09;;;4.49;79.27
60974;BME280;46846;51.528;5.076;2022-11-22T02:23:55;98633.56;;;4.50;79.60
60974;BME280;46846;51.528;5.076;2022-11-22T02:26:26;98632.84;;;4.46;80.18
60974;BME280;46846;51.528;5.076;2022-11-22T02:28:52;98633.00;;;4.43;80.04
60974;BME280;46846;51.528;5.076;2022-11-22T02:34:03;98633.00;;;4.43;79.20
60974;BME280;46846;51.528;5.076;2022-11-22T02:36:29;98638.25;;;4.43;79.68
60974;BME280;46846;51.528;5.076;2022-11-22T02:38:56;98639.19;;;4.42;79.69
60974;BME280;46846;51.528;5.076;2022-11-22T02:41:21;98626.03;;;4.42;79.62
60974;BME280;46846;51.528;5.076;2022-11-22T02:43:46;98631.28;;;4.42;79.59
60974;BME280;46846;51.528;5.076;2022-11-22T02:46:13;98637.53;;;4.40;80.21
60974;BME280;46846;51.528;5.076;2022-11-22T02:48:41;98641.09;;;4.38;79.91
60974;BME280;46846;51.528;5.076;2022-11-22T02:51:06;98642.09;;;4.36;79.68
60974;BME280;46846;51.528;5.076;2022-11-22T02:53:32;98640.25;;;4.38;79.88
60974;BME280;46846;51.528;5.076;2022-11-22T02:55:57;98644.72;;;4.36;79.75
60974;BME280;46846;51.528;5.076;2022-11-22T02:58:22;98653.47;;;4.36;79.44
60974;BME280;46846;51.528;5.076;2022-11-22T03:00:47;98640.44;;;4.33;80.11
60974;BME280;46846;51.528;5.076;2022-11-22T03:03:13;98650.81;;;4.36;79.68
60974;BME280;46846;51.528;5.076;2022-11-22T03:05:38;98643.91;;;4.34;79.66
60974;BME280;46846;51.528;5.076;2022-11-22T03:08:03;98653.56;;;4.35;80.07
60974;BME280;46846;51.528;5.076;2022-11-22T03:10:28;98643.84;;;4.35;79.51
60974;BME280;46846;51.528;5.076;2022-11-22T03:12:55;98657.03;;;4.35;79.17
60974;BME280;46846;51.528;5.076;2022-11-22T03:15:20;98652.75;;;4.33;79.42
60974;BME280;46846;51.528;5.076;2022-11-22T03:17:45;98655.47;;;4.31;79.63
60974;BME280;46846;51.528;5.076;2022-11-22T03:20:10;98664.25;;;4.30;79.79
60974;BME280;46846;51.528;5.076;2022-11-22T03:22:36;98657.22;;;4.31;79.97
60974;BME280;46846;51.528;5.076;2022-11-22T03:25:01;98655.53;;;4.30;79.94
60974;BME280;46846;51.528;5.076;2022-11-22T03:27:26;98658.28;;;4.27;79.64
60974;BME280;46846;51.528;5.076;2022-11-22T03:29:51;98656.56;;;4.26;79.76
60974;BME280;46846;51.528;5.076;2022-11-22T03:32:17;98647.75;;;4.27;79.68
60974;BME280;46846;51.528;5.076;2022-11-22T03:34:42;98652.16;;;4.26;79.81
60974;BME280;46846;51.528;5.076;2022-11-22T03:37:07;98658.28;;;4.27;79.42
60974;BME280;46846;51.528;5.076;2022-11-22T03:39:32;98654.84;;;4.24;79.99
60974;BME280;46846;51.528;5.076;2022-11-22T03:41:58;98654.84;;;4.24;79.33
60974;BME280;46846;51.528;5.076;2022-11-22T03:44:23;98658.41;;;4.23;79.38
60974;BME280;46846;51.528;5.076;2022-11-22T03:46:48;98656.84;;;4.19;79.08
60974;BME280;46846;51.528;5.076;2022-11-22T03:49:14;98664.75;;;4.19;79.56
60974;BME280;46846;51.528;5.076;2022-11-22T03:51:39;98662.13;;;4.19;79.11
60974;BME280;46846;51.528;5.076;2022-11-22T03:54:04;98661.31;;;4.17;79.46
60974;BME280;46846;51.528;5.076;2022-11-22T03:56:29;98660.38;;;4.18;79.37
60974;BME280;46846;51.528;5.076;2022-11-22T03:58:54;98669.28;;;4.16;79.21
60974;BME280;46846;51.528;5.076;2022-11-22T04:01:20;98676.31;;;4.15;79.58
60974;BME280;46846;51.528;5.076;2022-11-22T04:03:45;98679.94;;;4.13;79.48
60974;BME280;46846;51.528;5.076;2022-11-22T04:06:10;98684.28;;;4.14;79.87
60974;BME280;46846;51.528;5.076;2022-11-22T04:08:35;98682.56;;;4.13;79.80
60974;BME280;46846;51.528;5.076;2022-11-22T04:11:01;98680.88;;;4.12;79.65
60974;BME280;46846;51.528;5.076;2022-11-22T04:13:26;98680.00;;;4.11;79.07
60974;BME280;46846;51.528;5.076;2022-11-22T04:16:11;98686.28;;;4.08;79.06
60974;BME280;46846;51.528;5.076;2022-11-22T04:18:36;98694.94;;;4.10;79.59
60974;BME280;46846;51.528;5.076;2022-11-22T04:21:02;98699.50;;;4.07;79.00
60974;BME280;46846;51.528;5.076;2022-11-22T04:23:45;98689.94;;;4.04;79.64
60974;BME280;46846;51.528;5.076;2022-11-22T04:26:31;98691.66;;;4.05;79.97
60974;BME280;46846;51.528;5.076;2022-11-22T04:28:56;98693.56;;;4.02;79.71
60974;BME280;46846;51.528;5.076;2022-11-22T04:31:21;98684.81;;;4.01;79.85
60974;BME280;46846;51.528;5.076;2022-11-22T04:34:05;98682.19;;;4.01;79.48
60974;BME280;46846;51.528;5.076;2022-11-22T04:36:30;98681.31;;;4.01;79.69
60974;BME280;46846;51.528;5.076;2022-11-22T04:38:55;98691.19;;;3.95;79.47
60974;BME280;46846;51.528;5.076;2022-11-22T04:41:21;98693.75;;;3.97;79.89
60974;BME280;46846;51.528;5.076;2022-11-22T04:43:46;98688.75;;;3.91;79.92
60974;BME280;46846;51.528;5.076;2022-11-22T04:46:30;98694.00;;;3.91;80.15
60974;BME280;46846;51.528;5.076;2022-11-22T04:48:55;98695.72;;;3.92;79.45
60974;BME280;46846;51.528;5.076;2022-11-22T04:51:21;98693.03;;;3.93;79.64
60974;BME280;46846;51.528;5.076;2022-11-22T04:54:04;98694.88;;;3.91;79.39
60974;BME280;46846;51.528;5.076;2022-11-22T04:56:29;98697.41;;;3.93;79.46
60974;BME280;46846;51.528;5.076;2022-11-22T04:58:55;98690.41;;;3.93;79.04
60974;BME280;46846;51.528;5.076;2022-11-22T05:01:20;98692.25;;;3.91;79.39
60974;BME280;46846;51.528;5.076;2022-11-22T05:03:45;98691.47;;;3.89;79.23
60974;BME280;46846;51.528;5.076;2022-11-22T05:06:11;98696.72;;;3.89;79.28
60974;BME280;46846;51.528;5.076;2022-11-22T05:08:37;98689.91;;;3.83;79.77
60974;BME280;46846;51.528;5.076;2022-11-22T05:11:02;98696.03;;;3.84;79.29
60974;BME280;46846;51.528;5.076;2022-11-22T05:13:34;98700.53;;;3.82;79.57
60974;BME280;46846;51.528;5.076;2022-11-22T05:16:00;98704.03;;;3.81;79.50
60974;BME280;46846;51.528;5.076;2022-11-22T05:18:26;98706.50;;;3.86;78.80
60974;BME280;46846;51.528;5.076;2022-11-22T05:20:55;98703.06;;;3.83;78.99
60974;BME280;46846;51.528;5.076;2022-11-22T05:23:21;98703.25;;;3.79;79.52
60974;BME280;46846;51.528;5.076;2022-11-22T05:26:05;98704.03;;;3.81;79.24
60974;BME280;46846;51.528;5.076;2022-11-22T05:28:30;98702.34;;;3.80;78.98
60974;BME280;46846;51.528;5.076;2022-11-22T05:30:56;98702.47;;;3.77;79.37
60974;BME280;46846;51.528;5.076;2022-11-22T05:33:21;98712.94;;;3.78;79.30
60974;BME280;46846;51.528;5.076;2022-11-22T05:35:47;98713.00;;;3.77;79.06
60974;BME280;46846;51.528;5.076;2022-11-22T05:38:12;98709.59;;;3.75;79.33
60974;BME280;46846;51.528;5.076;2022-11-22T05:40:37;98705.09;;;3.77;79.27
60974;BME280;46846;51.528;5.076;2022-11-22T05:43:03;98712.22;;;3.75;79.21
60974;BME280;46846;51.528;5.076;2022-11-22T05:45:28;98708.72;;;3.74;78.92
60974;BME280;46846;51.528;5.076;2022-11-22T05:47:54;98707.84;;;3.74;79.20
60974;BME280;46846;51.528;5.076;2022-11-22T05:50:19;98709.59;;;3.75;78.94
60974;BME280;46846;51.528;5.076;2022-11-22T05:52:44;98699.91;;;3.75;79.25
60974;BME280;46846;51.528;5.076;2022-11-22T05:55:10;98697.31;;;3.74;79.30
60974;BME280;46846;51.528;5.076;2022-11-22T05:57:35;98694.69;;;3.74;79.23
60974;BME280;46846;51.528;5.076;2022-11-22T06:00:00;98685.09;;;3.73;78.81
60974;BME280;46846;51.528;5.076;2022-11-22T06:02:26;98682.56;;;3.71;78.78
60974;BME280;46846;51.528;5.076;2022-11-22T06:04:51;98690.34;;;3.73;79.17
60974;BME280;46846;51.528;5.076;2022-11-22T06:07:16;98690.50;;;3.69;78.79
60974;BME280;46846;51.528;5.076;2022-11-22T06:09:41;98687.81;;;3.71;78.59
60974;BME280;46846;51.528;5.076;2022-11-22T06:12:07;98691.53;;;3.65;78.99
60974;BME280;46846;51.528;5.076;2022-11-22T06:14:32;98685.47;;;3.63;78.85
60974;BME280;46846;51.528;5.076;2022-11-22T06:16:58;98684.69;;;3.61;79.20
60974;BME280;46846;51.528;5.076;2022-11-22T06:19:23;98696.88;;;3.64;79.02
60974;BME280;46846;51.528;5.076;2022-11-22T06:21:48;98694.28;;;3.62;79.21
60974;BME280;46846;51.528;5.076;2022-11-22T06:24:13;98698.63;;;3.63;79.04
60974;BME280;46846;51.528;5.076;2022-11-22T06:26:39;98716.16;;;3.63;79.41
60974;BME280;46846;51.528;5.076;2022-11-22T06:29:04;98719.72;;;3.62;78.96
60974;BME280;46846;51.528;5.076;2022-11-22T06:31:29;98715.34;;;3.62;78.68
60974;BME280;46846;51.528;5.076;2022-11-22T06:33:55;98720.59;;;3.62;78.97
60974;BME280;46846;51.528;5.076;2022-11-22T06:36:24;98717.19;;;3.60;78.88
60974;BME280;46846;51.528;5.076;2022-11-22T06:38:50;98717.91;;;3.64;78.82
60974;BME280;46846;51.528;5.076;2022-11-22T06:41:22;98720.69;;;3.59;78.69
60974;BME280;46846;51.528;5.076;2022-11-22T06:43:49;98731.13;;;3.62;78.88
60974;BME280;46846;51.528;5.076;2022-11-22T06:46:14;98738.09;;;3.63;79.02
60974;BME280;46846;51.528;5.076;2022-11-22T06:48:40;98734.66;;;3.61;78.74
60974;BME280;46846;51.528;5.076;2022-11-22T06:51:08;98736.47;;;3.59;79.08
60974;BME280;46846;51.528;5.076;2022-11-22T06:53:34;98735.69;;;3.57;78.74
60974;BME280;46846;51.528;5.076;2022-11-22T06:58:25;98733.06;;;3.57;78.56
60974;BME280;46846;51.528;5.076;2022-11-22T07:00:50;98730.47;;;3.55;78.96
60974;BME280;46846;51.528;5.076;2022-11-22T07:03:15;98735.81;;;3.54;79.07
60974;BME280;46846;51.528;5.076;2022-11-22T07:05:48;98734.13;;;3.53;79.00
60974;BME280;46846;51.528;5.076;2022-11-22T07:08:13;98745.41;;;3.55;78.74
60974;BME280;46846;51.528;5.076;2022-11-22T07:10:39;98747.13;;;3.56;79.31
60974;BME280;46846;51.528;5.076;2022-11-22T07:13:04;98742.78;;;3.55;79.66
60974;BME280;46846;51.528;5.076;2022-11-22T07:15:29;98743.72;;;3.54;79.31
60974;BME280;46846;51.528;5.076;2022-11-22T07:17:54;98731.72;;;3.47;79.22
60974;BME280;46846;51.528;5.076;2022-11-22T07:20:19;98735.94;;;3.51;79.09
60974;BME280;46846;51.528;5.076;2022-11-22T07:22:46;98732.47;;;3.50;78.75
60974;BME280;46846;51.528;5.076;2022-11-22T07:25:11;98730.66;;;3.51;78.79
60974;BME280;46846;51.528;5.076;2022-11-22T07:27:36;98729.78;;;3.52;79.31
60974;BME280;46846;51.528;5.076;2022-11-22T07:30:01;98735.13;;;3.49;79.21
60974;BME280;46846;51.528;5.076;2022-11-22T07:32:29;98740.03;;;3.58;79.51
60974;BME280;46846;51.528;5.076;2022-11-22T07:34:54;98734.03;;;3.54;79.59
60974;BME280;46846;51.528;5.076;2022-11-22T07:37:20;98731.41;;;3.54;79.53
60974;BME280;46846;51.528;5.076;2022-11-22T07:39:45;98728.78;;;3.54;79.50
60974;BME280;46846;51.528;5.076;2022-11-22T07:42:10;98735.03;;;3.52;79.35
60974;BME280;46846;51.528;5.076;2022-11-22T07:44:37;98729.94;;;3.47;79.38
60974;BME280;46846;51.528;5.076;2022-11-22T07:47:02;98747.38;;;3.50;79.11
60974;BME280;46846;51.528;5.076;2022-11-22T07:49:27;98743.25;;;3.42;79.18
60974;BME280;46846;51.528;5.076;2022-11-22T07:51:52;98744.81;;;3.48;79.20
60974;BME280;46846;51.528;5.076;2022-11-22T07:54:18;98741.38;;;3.46;79.33
60974;BME280;46846;51.528;5.076;2022-11-22T07:56:43;98753.69;;;3.46;79.15
60974;BME280;46846;51.528;5.076;2022-11-22T07:59:08;98748.47;;;3.44;79.52
60974;BME280;46846;51.528;5.076;2022-11-22T08:01:33;98749.34;;;3.45;79.36
60974;BME280;46846;51.528;5.076;2022-11-22T08:03:58;98746.75;;;3.43;79.38
60974;BME280;46846;51.528;5.076;2022-11-22T08:06:24;98750.31;;;3.42;79.03
60974;BME280;46846;51.528;5.076;2022-11-22T08:08:49;98751.22;;;3.41;79.16
60974;BME280;46846;51.528;5.076;2022-11-22T08:11:14;98747.59;;;3.44;79.16
60974;BME280;46846;51.528;5.076;2022-11-22T08:13:39;98750.91;;;3.49;79.17
60974;BME280;46846;51.528;5.076;2022-11-22T08:16:06;98753.72;;;3.44;79.00
60974;BME280;46846;51.528;5.076;2022-11-22T08:18:33;98756.34;;;3.44;78.96
60974;BME280;46846;51.528;5.076;2022-11-22T08:21:06;98751.88;;;3.46;78.94
60974;BME280;46846;51.528;5.076;2022-11-22T08:23:31;98759.00;;;3.44;79.33
60974;BME280;46846;51.528;5.076;2022-11-22T08:25:57;98757.09;;;3.48;79.56
60974;BME280;46846;51.528;5.076;2022-11-22T08:28:23;98753.59;;;3.47;79.15
60974;BME280;46846;51.528;5.076;2022-11-22T08:30:48;98756.34;;;3.44;79.57
60974;BME280;46846;51.528;5.076;2022-11-22T08:33:13;98757.03;;;3.49;78.91
60974;BME280;46846;51.528;5.076;2022-11-22T08:35:38;98756.06;;;3.52;78.86
60974;BME280;46846;51.528;5.076;2022-11-22T08:38:04;98758.00;;;3.47;78.83
60974;BME280;46846;51.528;5.076;2022-11-22T08:40:29;98760.59;;;3.48;78.90
60974;BME280;46846;51.528;5.076;2022-11-22T08:42:54;98763.22;;;3.48;78.72
60974;BME280;46846;51.528;5.076;2022-11-22T08:45:20;98761.47;;;3.47;79.07
60974;BME280;46846;51.528;5.076;2022-11-22T08:47:45;98764.28;;;3.42;78.88
60974;BME280;46846;51.528;5.076;2022-11-22T08:50:12;98757.16;;;3.46;79.14
60974;BME280;46846;51.528;5.076;2022-11-22T08:52:38;98770.44;;;3.43;79.30
60974;BME280;46846;51.528;5.076;2022-11-22T08:55:03;98767.75;;;3.45;79.08
60974;BME280;46846;51.528;5.076;2022-11-22T08:57:28;98764.19;;;3.46;78.94
60974;BME280;46846;51.528;5.076;2022-11-22T08:59:53;98775.38;;;3.51;79.17
60974;BME280;46846;51.528;5.076;2022-11-22T09:02:19;98780.72;;;3.49;79.45
60974;BME280;46846;51.528;5.076;2022-11-22T09:04:44;98778.31;;;3.43;79.42
60974;BME280;46846;51.528;5.076;2022-11-22T09:07:09;98767.75;;;3.45;79.92
60974;BME280;46846;51.528;5.076;2022-11-22T09:09:35;98774.63;;;3.47;79.88
60974;BME280;46846;51.528;5.076;2022-11-22T09:12:00;98773.66;;;3.50;79.42
60974;BME280;46846;51.528;5.076;2022-11-22T09:14:25;98782.53;;;3.47;79.29
60974;BME280;46846;51.528;5.076;2022-11-22T09:16:50;98773.78;;;3.47;79.46
60974;BME280;46846;51.528;5.076;2022-11-22T09:19:15;98782.38;;;3.52;79.26
60974;BME280;46846;51.528;5.076;2022-11-22T09:21:41;98777.91;;;3.54;79.27
60974;BME280;46846;51.528;5.076;2022-11-22T09:24:06;98783.94;;;3.56;79.28
60974;BME280;46846;51.528;5.076;2022-11-22T09:26:31;98783.16;;;3.54;79.28
60974;BME280;46846;51.528;5.076;2022-11-22T09:28:57;98783.06;;;3.55;79.54
60974;BME280;46846;51.528;5.076;2022-11-22T09:31:22;98786.53;;;3.58;79.01
60974;BME280;46846;51.528;5.076;2022-11-22T09:33:48;98787.38;;;3.58;79.08
60974;BME280;46846;51.528;5.076;2022-11-22T09:36:14;98785.72;;;3.55;79.28
60974;BME280;46846;51.528;5.076;2022-11-22T09:38:40;98789.22;;;3.56;79.10
60974;BME280;46846;51.528;5.076;2022-11-22T09:41:18;98790.00;;;3.58;79.66
60974;BME280;46846;51.528;5.076;2022-11-22T09:43:49;98790.81;;;3.60;79.11
60974;BME280;46846;51.528;5.076;2022-11-22T09:51:26;98785.56;;;3.60;79.52
60974;BME280;46846;51.528;5.076;2022-11-22T09:53:57;98778.50;;;3.61;79.28
60974;BME280;46846;51.528;5.076;2022-11-22T09:56:25;98780.16;;;3.63;78.99
60974;BME280;46846;51.528;5.076;2022-11-22T09:58:53;98781.19;;;3.59;79.05
60974;BME280;46846;51.528;5.076;2022-11-22T10:06:33;98788.19;;;3.60;79.14
60974;BME280;46846;51.528;5.076;2022-11-22T10:09:04;98789.91;;;3.61;79.48
60974;BME280;46846;51.528;5.076;2022-11-22T10:11:42;98788.28;;;3.57;79.46
60974;BME280;46846;51.528;5.076;2022-11-22T10:16:41;98769.59;;;3.65;79.20
60974;BME280;46846;51.528;5.076;2022-11-22T10:19:22;98772.31;;;3.62;79.23
60974;BME280;46846;51.528;5.076;2022-11-22T10:21:49;98767.78;;;3.65;79.29
60974;BME280;46846;51.528;5.076;2022-11-22T10:24:15;98774.91;;;3.63;79.41
60974;BME280;46846;51.528;5.076;2022-11-22T10:26:41;98775.81;;;3.62;79.46
60974;BME280;46846;51.528;5.076;2022-11-22T10:34:39;98777.47;;;3.65;79.29
60974;BME280;46846;51.528;5.076;2022-11-22T10:37:23;98769.81;;;3.59;79.76
60974;BME280;46846;51.528;5.076;2022-11-22T10:40:04;98772.28;;;3.63;79.73
60974;BME280;46846;51.528;5.076;2022-11-22T10:57:53;98764.16;;;3.69;79.80
60974;BME280;46846;51.528;5.076;2022-11-22T11:00:23;98761.38;;;3.73;79.58
60974;BME280;46846;51.528;5.076;2022-11-22T11:03:52;98759.56;;;3.75;79.60
60974;BME280;46846;51.528;5.076;2022-11-22T11:08:39;98748.13;;;3.76;79.58
60974;BME280;46846;51.528;5.076;2022-11-22T11:11:03;98753.44;;;3.74;79.58
60974;BME280;46846;51.528;5.076;2022-11-22T11:13:30;98748.19;;;3.74;79.36
60974;BME280;46846;51.528;5.076;2022-11-22T11:15:58;98752.50;;;3.75;79.99
60974;BME280;46846;51.528;5.076;2022-11-22T11:18:29;98750.13;;;3.69;79.71
60974;BME280;46846;51.528;5.076;2022-11-22T11:20:56;98747.31;;;3.74;79.79
60974;BME280;46846;51.528;5.076;2022-11-22T11:23:22;98753.31;;;3.77;79.57
60974;BME280;46846;51.528;5.076;2022-11-22T11:25:47;98749.81;;;3.77;79.89
60974;BME280;46846;51.528;5.076;2022-11-22T11:28:20;98745.50;;;3.76;79.80
60974;BME280;46846;51.528;5.076;2022-11-22T11:30:47;98744.38;;;3.81;79.71
60974;BME280;46846;51.528;5.076;2022-11-22T11:33:18;98747.88;;;3.82;79.51
60974;BME280;46846;51.528;5.076;2022-11-22T11:35:44;98740.81;;;3.82;79.14
60974;BME280;46846;51.528;5.076;2022-11-22T11:41:43;98728.41;;;3.86;79.50
60974;BME280;46846;51.528;5.076;2022-11-22T11:43:44;98733.56;;;3.89;79.41
60974;BME280;46846;51.528;5.076;2022-11-22T11:46:14;98730.84;;;3.91;79.86
60974;BME280;46846;51.528;5.076;2022-11-22T11:48:40;98727.47;;;3.87;79.49
60974;BME280;46846;51.528;5.076;2022-11-22T11:51:10;98724.66;;;3.92;79.20
60974;BME280;46846;51.528;5.076;2022-11-22T11:53:37;98731.56;;;3.94;79.46
60974;BME280;46846;51.528;5.076;2022-11-22T11:56:22;98722.75;;;3.95;79.54
60974;BME280;46846;51.528;5.076;2022-11-22T11:58:52;98722.94;;;3.91;79.24
60974;BME280;46846;51.528;5.076;2022-11-22T12:01:19;98728.00;;;3.95;79.58
60974;BME280;46846;51.528;5.076;2022-11-22T12:04:18;98725.47;;;3.94;79.46
60974;BME280;46846;51.528;5.076;2022-11-22T12:06:37;98734.25;;;3.93;79.21
60974;BME280;46846;51.528;5.076;2022-11-22T12:09:06;98735.84;;;3.97;79.15
60974;BME280;46846;51.528;5.076;2022-11-22T12:11:39;98729.72;;;3.96;79.60
60974;BME280;46846;51.528;5.076;2022-11-22T12:14:06;98731.38;;;3.99;79.61
60974;BME280;46846;51.528;5.076;2022-11-22T12:16:39;98721.72;;;4.00;79.38
60974;BME280;46846;51.528;5.076;2022-11-22T12:26:34;98725.59;;;4.12;79.84
60974;BME280;46846;51.528;5.076;2022-11-22T12:28:59;98715.94;;;4.12;79.20
60974;BME280;46846;51.528;5.076;2022-11-22T12:31:35;98719.47;;;4.11;79.83
60974;BME280;46846;51.528;5.076;2022-11-22T12:36:51;98713.44;;;4.09;79.17
60974;BME280;46846;51.528;5.076;2022-11-22T12:39:18;98720.66;;;4.04;79.96
60974;BME280;46846;51.528;5.076;2022-11-22T12:41:46;98721.38;;;4.07;79.99
60974;BME280;46846;51.528;5.076;2022-11-22T12:44:14;98711.53;;;4.13;79.65
60974;BME280;46846;51.528;5.076;2022-11-22T12:46:42;98719.41;;;4.13;79.34
60974;BME280;46846;51.528;5.076;2022-11-22T12:49:11;98713.44;;;4.09;79.92
60974;BME280;46846;51.528;5.076;2022-11-22T12:54:12;98716.00;;;4.10;79.48
60974;BME280;46846;51.528;5.076;2022-11-22T12:56:50;98711.88;;;4.05;79.95
60974;BME280;46846;51.528;5.076;2022-11-22T13:01:47;98704.59;;;4.10;79.37
60974;BME280;46846;51.528;5.076;2022-11-22T13:04:19;98704.94;;;4.02;79.33
60974;BME280;46846;51.528;5.076;2022-11-22T13:06:54;98702.06;;;4.08;79.74
60974;BME280;46846;51.528;5.076;2022-11-22T13:09:22;98709.81;;;4.12;79.78
60974;BME280;46846;51.528;5.076;2022-11-22T13:12:05;98704.59;;;4.10;79.84
60974;BME280;46846;51.528;5.076;2022-11-22T13:14:41;98703.69;;;4.11;80.00
60974;BME280;46846;51.528;5.076;2022-11-22T13:17:08;98707.03;;;4.15;80.20
60974;BME280;46846;51.528;5.076;2022-11-22T13:19:46;98699.16;;;4.15;79.93
60974;BME280;46846;51.528;5.076;2022-11-22T13:29:47;98710.34;;;4.20;79.86
60974;BME280;46846;51.528;5.076;2022-11-22T13:32:16;98712.19;;;4.18;80.29
60974;BME280;46846;51.528;5.076;2022-11-22T13:35:04;98711.31;;;4.17;79.61
60974;BME280;46846;51.528;5.076;2022-11-22T13:37:35;98709.50;;;4.19;79.66
60974;BME280;46846;51.528;5.076;2022-11-22T13:40:19;98705.03;;;4.21;79.95
60974;BME280;46846;51.528;5.076;2022-11-22T13:42:45;98709.31;;;4.24;80.02
60974;BME280;46846;51.528;5.076;2022-11-22T13:45:23;98711.06;;;4.23;79.65
60974;BME280;46846;51.528;5.076;2022-11-22T13:47:48;98713.56;;;4.27;79.97
60974;BME280;46846;51.528;5.076;2022-11-22T13:52:58;98723.19;;;4.28;79.97
60974;BME280;46846;51.528;5.076;2022-11-22T13:55:39;98724.81;;;4.30;80.23
60974;BME280;46846;51.528;5.076;2022-11-22T14:00:48;98717.63;;;4.34;79.74
60974;BME280;46846;51.528;5.076;2022-11-22T14:05:49;98710.56;;;4.36;79.67
60974;BME280;46846;51.528;5.076;2022-11-22T14:13:28;98706.84;;;4.40;79.41
60974;BME280;46846;51.528;5.076;2022-11-22T14:16:19;98702.50;;;4.39;79.90
60974;BME280;46846;51.528;5.076;2022-11-22T14:21:24;98693.69;;;4.40;79.23
60974;BME280;46846;51.528;5.076;2022-11-22T14:47:43;98702.91;;;4.50;79.34
60974;BME280;46846;51.528;5.076;2022-11-22T14:50:14;98709.94;;;4.50;80.02
60974;BME280;46846;51.528;5.076;2022-11-22T14:52:41;98703.84;;;4.49;79.84
60974;BME280;46846;51.528;5.076;2022-11-22T14:55:10;98708.19;;;4.50;79.98
60974;BME280;46846;51.528;5.076;2022-11-22T14:57:39;98711.75;;;4.49;79.40
60974;BME280;46846;51.528;5.076;2022-11-22T15:00:15;98716.06;;;4.50;79.66
60974;BME280;46846;51.528;5.076;2022-11-22T15:05:35;98718.00;;;4.47;79.93